sensor_id;sensor_type;location;lat;lon;timestamp;temperature;humidity
34927;DHT22;21132;48.308;14.274;2023-07-09T00:00:14;24.50;43.50
34927;DHT22;21132;48.308;14.274;2023-07-09T00:02:54;24.50;43.70
34927;DHT22;21132;48.308;14.274;2023-07-09T00:05:33;24.40;43.90
34927;DHT22;21132;48.308;14.274;2023-07-09T00:08:49;24.40;44.50
34927;DHT22;21132;48.308;14.274;2023-07-09T00:11:05;24.40;44.70
34927;DHT22;21132;48.308;14.274;2023-07-09T00:13:41;24.40;45.20
34927;DHT22;21132;48.308;14.274;2023-07-09T00:16:24;24.30;44.80
34927;DHT22;21132;48.308;14.274;2023-07-09T00:19:01;24.30;44.90
34927;DHT22;21132;48.308;14.274;2023-07-09T00:21:37;24.30;44.60
34927;DHT22;21132;48.308;14.274;2023-07-09T00:24:17;24.20;45.30
34927;DHT22;21132;48.308;14.274;2023-07-09T00:26:54;24.20;44.90
34927;DHT22;21132;48.308;14.274;2023-07-09T00:29:38;24.20;45.20
34927;DHT22;21132;48.308;14.274;2023-07-09T00:32:24;24.10;45.10
34927;DHT22;21132;48.308;14.274;2023-07-09T00:35:17;24.10;45.20
34927;DHT22;21132;48.308;14.274;2023-07-09T00:37:56;24.10;45.30
34927;DHT22;21132;48.308;14.274;2023-07-09T00:40:38;24.10;45.80
34927;DHT22;21132;48.308;14.274;2023-07-09T00:43:16;24.00;45.40
34927;DHT22;21132;48.308;14.274;2023-07-09T00:48:53;24.00;45.40
34927;DHT22;21132;48.308;14.274;2023-07-09T00:51:34;24.00;45.80
34927;DHT22;21132;48.308;14.274;2023-07-09T00:57:15;23.90;46.00
34927;DHT22;21132;48.308;14.274;2023-07-09T01:00:00;23.90;46.40
34927;DHT22;21132;48.308;14.274;2023-07-09T01:02:33;23.90;46.40
34927;DHT22;21132;48.308;14.274;2023-07-09T01:05:07;23.90;47.20
34927;DHT22;21132;48.308;14.274;2023-07-09T01:07:40;23.80;47.10
34927;DHT22;21132;48.308;14.274;2023-07-09T01:10:16;23.90;48.50
34927;DHT22;21132;48.308;14.274;2023-07-09T01:12:51;23.80;47.90
34927;DHT22;21132;48.308;14.274;2023-07-09T01:15:33;23.80;47.70
34927;DHT22;21132;48.308;14.274;2023-07-09T01:18:13;23.90;47.40
34927;DHT22;21132;48.308;14.274;2023-07-09T01:20:47;23.90;47.50
34927;DHT22;21132;48.308;14.274;2023-07-09T01:23:30;23.90;47.60
34927;DHT22;21132;48.308;14.274;2023-07-09T01:26:01;23.90;47.20
34927;DHT22;21132;48.308;14.274;2023-07-09T01:28:35;24.00;47.30
34927;DHT22;21132;48.308;14.274;2023-07-09T01:31:15;24.00;47.40
34927;DHT22;21132;48.308;14.274;2023-07-09T01:33:49;24.00;47.30
34927;DHT22;21132;48.308;14.274;2023-07-09T01:36:26;24.10;47.20
34927;DHT22;21132;48.308;14.274;2023-07-09T01:39:11;24.20;47.20
34927;DHT22;21132;48.308;14.274;2023-07-09T01:41:52;24.20;47.30
34927;DHT22;21132;48.308;14.274;2023-07-09T01:44:37;24.20;47.40
34927;DHT22;21132;48.308;14.274;2023-07-09T01:47:19;24.20;47.30
34927;DHT22;21132;48.308;14.274;2023-07-09T01:49:57;24.30;48.00
34927;DHT22;21132;48.308;14.274;2023-07-09T01:52:40;24.30;47.50
34927;DHT22;21132;48.308;14.274;2023-07-09T01:55:14;24.30;47.50
34927;DHT22;21132;48.308;14.274;2023-07-09T01:57:52;24.30;47.50
34927;DHT22;21132;48.308;14.274;2023-07-09T02:00:34;24.30;47.40
34927;DHT22;21132;48.308;14.274;2023-07-09T02:03:11;24.30;47.80
34927;DHT22;21132;48.308;14.274;2023-07-09T02:05:53;24.30;47.40
34927;DHT22;21132;48.308;14.274;2023-07-09T02:08:38;24.30;47.30
34927;DHT22;21132;48.308;14.274;2023-07-09T02:11:23;24.30;47.50
34927;DHT22;21132;48.308;14.274;2023-07-09T02:14:05;24.30;47.40
34927;DHT22;21132;48.308;14.274;2023-07-09T02:16:36;24.30;47.30
34927;DHT22;21132;48.308;14.274;2023-07-09T02:19:21;24.40;46.70
34927;DHT22;21132;48.308;14.274;2023-07-09T02:22:03;24.40;47.10
34927;DHT22;21132;48.308;14.274;2023-07-09T02:24:42;24.30;47.20
34927;DHT22;21132;48.308;14.274;2023-07-09T02:27:13;24.30;47.20
34927;DHT22;21132;48.308;14.274;2023-07-09T02:29:46;24.30;47.00
34927;DHT22;21132;48.308;14.274;2023-07-09T02:32:26;24.30;46.90
34927;DHT22;21132;48.308;14.274;2023-07-09T02:35:08;24.20;47.20
34927;DHT22;21132;48.308;14.274;2023-07-09T02:37:45;24.20;47.50
34927;DHT22;21132;48.308;14.274;2023-07-09T02:40:26;24.20;47.60
34927;DHT22;21132;48.308;14.274;2023-07-09T02:43:03;24.20;47.30
34927;DHT22;21132;48.308;14.274;2023-07-09T02:45:45;24.20;47.40
34927;DHT22;21132;48.308;14.274;2023-07-09T02:48:29;24.20;47.40
34927;DHT22;21132;48.308;14.274;2023-07-09T02:51:05;24.20;47.50
34927;DHT22;21132;48.308;14.274;2023-07-09T02:53:36;24.20;48.10
34927;DHT22;21132;48.308;14.274;2023-07-09T02:56:09;24.20;47.30
34927;DHT22;21132;48.308;14.274;2023-07-09T02:58:53;24.20;47.10
34927;DHT22;21132;48.308;14.274;2023-07-09T03:01:38;24.10;47.30
34927;DHT22;21132;48.308;14.274;2023-07-09T03:04:22;24.10;47.40
34927;DHT22;21132;48.308;14.274;2023-07-09T03:07:01;24.00;47.90
34927;DHT22;21132;48.308;14.274;2023-07-09T03:09:46;24.00;47.90
34927;DHT22;21132;48.308;14.274;2023-07-09T03:12:26;23.90;47.50
34927;DHT22;21132;48.308;14.274;2023-07-09T03:15:11;23.80;47.80
34927;DHT22;21132;48.308;14.274;2023-07-09T03:17:42;23.70;47.40
34927;DHT22;21132;48.308;14.274;2023-07-09T03:20:14;23.70;47.60
34927;DHT22;21132;48.308;14.274;2023-07-09T03:22:50;23.60;47.80
34927;DHT22;21132;48.308;14.274;2023-07-09T03:25:30;23.50;47.70
34927;DHT22;21132;48.308;14.274;2023-07-09T03:28:06;23.40;48.00
34927;DHT22;21132;48.308;14.274;2023-07-09T03:30:45;23.40;48.60
34927;DHT22;21132;48.308;14.274;2023-07-09T03:33:16;23.30;47.90
34927;DHT22;21132;48.308;14.274;2023-07-09T03:35:51;23.30;48.20
34927;DHT22;21132;48.308;14.274;2023-07-09T03:38:27;23.30;48.50
34927;DHT22;21132;48.308;14.274;2023-07-09T03:41:06;23.30;48.70
34927;DHT22;21132;48.308;14.274;2023-07-09T03:43:48;23.20;48.70
34927;DHT22;21132;48.308;14.274;2023-07-09T03:46:27;23.20;48.70
34927;DHT22;21132;48.308;14.274;2023-07-09T03:49:00;23.20;49.00
34927;DHT22;21132;48.308;14.274;2023-07-09T03:51:39;23.20;49.10
34927;DHT22;21132;48.308;14.274;2023-07-09T03:54:24;23.20;50.10
34927;DHT22;21132;48.308;14.274;2023-07-09T03:57:09;23.20;50.30
34927;DHT22;21132;48.308;14.274;2023-07-09T03:59:48;23.10;49.90
34927;DHT22;21132;48.308;14.274;2023-07-09T04:02:29;23.10;50.30
34927;DHT22;21132;48.308;14.274;2023-07-09T04:05:05;23.10;49.70
34927;DHT22;21132;48.308;14.274;2023-07-09T04:07:50;23.10;49.60
34927;DHT22;21132;48.308;14.274;2023-07-09T04:10:24;23.10;49.80
34927;DHT22;21132;48.308;14.274;2023-07-09T04:13:00;23.10;50.00
34927;DHT22;21132;48.308;14.274;2023-07-09T04:15:42;23.10;50.40
34927;DHT22;21132;48.308;14.274;2023-07-09T04:18:27;23.10;50.40
34927;DHT22;21132;48.308;14.274;2023-07-09T04:21:03;23.10;50.20
34927;DHT22;21132;48.308;14.274;2023-07-09T04:23:45;23.20;50.40
34927;DHT22;21132;48.308;14.274;2023-07-09T04:26:24;23.20;50.20
34927;DHT22;21132;48.308;14.274;2023-07-09T04:28:57;23.30;50.20
34927;DHT22;21132;48.308;14.274;2023-07-09T04:31:39;23.30;50.10
34927;DHT22;21132;48.308;14.274;2023-07-09T04:34:11;23.30;50.00
34927;DHT22;21132;48.308;14.274;2023-07-09T04:36:49;23.40;49.40
34927;DHT22;21132;48.308;14.274;2023-07-09T04:39:23;23.40;49.20
34927;DHT22;21132;48.308;14.274;2023-07-09T04:42:08;23.50;49.20
34927;DHT22;21132;48.308;14.274;2023-07-09T04:44:43;23.50;49.20
34927;DHT22;21132;48.308;14.274;2023-07-09T04:47:15;23.50;49.10
34927;DHT22;21132;48.308;14.274;2023-07-09T04:49:48;23.60;48.80
34927;DHT22;21132;48.308;14.274;2023-07-09T04:52:24;23.70;48.70
34927;DHT22;21132;48.308;14.274;2023-07-09T04:55:04;23.70;48.70
34927;DHT22;21132;48.308;14.274;2023-07-09T04:57:36;23.70;48.50
34927;DHT22;21132;48.308;14.274;2023-07-09T05:00:07;23.80;48.50
34927;DHT22;21132;48.308;14.274;2023-07-09T05:02:47;23.80;48.60
34927;DHT22;21132;48.308;14.274;2023-07-09T05:05:20;23.80;48.30
34927;DHT22;21132;48.308;14.274;2023-07-09T05:07:59;23.90;48.30
34927;DHT22;21132;48.308;14.274;2023-07-09T05:10:33;23.90;48.30
34927;DHT22;21132;48.308;14.274;2023-07-09T05:13:10;24.00;48.20
34927;DHT22;21132;48.308;14.274;2023-07-09T05:15:52;24.00;48.20
34927;DHT22;21132;48.308;14.274;2023-07-09T05:18:37;24.00;48.00
34927;DHT22;21132;48.308;14.274;2023-07-09T05:21:16;24.10;47.90
34927;DHT22;21132;48.308;14.274;2023-07-09T05:23:58;24.10;47.80
34927;DHT22;21132;48.308;14.274;2023-07-09T05:26:46;24.20;47.90
34927;DHT22;21132;48.308;14.274;2023-07-09T05:29:23;24.20;47.80
34927;DHT22;21132;48.308;14.274;2023-07-09T05:31:59;24.30;47.70
34927;DHT22;21132;48.308;14.274;2023-07-09T05:34:44;24.40;47.60
34927;DHT22;21132;48.308;14.274;2023-07-09T05:37:18;24.40;47.60
34927;DHT22;21132;48.308;14.274;2023-07-09T05:39:54;24.50;47.60
34927;DHT22;21132;48.308;14.274;2023-07-09T05:42:34;24.50;47.60
34927;DHT22;21132;48.308;14.274;2023-07-09T05:45:05;24.60;47.50
34927;DHT22;21132;48.308;14.274;2023-07-09T05:47:37;24.60;47.40
34927;DHT22;21132;48.308;14.274;2023-07-09T05:50:03;24.70;47.30
34927;DHT22;21132;48.308;14.274;2023-07-09T05:52:30;24.80;47.30
34927;DHT22;21132;48.308;14.274;2023-07-09T05:54:56;24.80;47.20
34927;DHT22;21132;48.308;14.274;2023-07-09T05:57:22;24.90;47.10
34927;DHT22;21132;48.308;14.274;2023-07-09T05:59:48;24.90;46.90
34927;DHT22;21132;48.308;14.274;2023-07-09T06:02:16;25.00;47.20
34927;DHT22;21132;48.308;14.274;2023-07-09T06:04:42;25.00;47.30
34927;DHT22;21132;48.308;14.274;2023-07-09T06:07:11;25.10;47.10
34927;DHT22;21132;48.308;14.274;2023-07-09T06:09:36;25.20;47.20
34927;DHT22;21132;48.308;14.274;2023-07-09T06:12:06;25.30;47.10
34927;DHT22;21132;48.308;14.274;2023-07-09T06:14:32;25.30;47.00
34927;DHT22;21132;48.308;14.274;2023-07-09T06:16:59;25.40;46.90
34927;DHT22;21132;48.308;14.274;2023-07-09T06:19:25;25.50;46.90
34927;DHT22;21132;48.308;14.274;2023-07-09T06:21:51;25.60;46.80
34927;DHT22;21132;48.308;14.274;2023-07-09T06:24:17;25.70;46.80
34927;DHT22;21132;48.308;14.274;2023-07-09T06:26:43;25.70;46.70
34927;DHT22;21132;48.308;14.274;2023-07-09T06:29:08;25.80;46.60
34927;DHT22;21132;48.308;14.274;2023-07-09T06:31:34;25.80;46.30
34927;DHT22;21132;48.308;14.274;2023-07-09T06:34:04;25.90;46.30
34927;DHT22;21132;48.308;14.274;2023-07-09T06:36:37;26.00;46.30
34927;DHT22;21132;48.308;14.274;2023-07-09T06:39:18;26.00;46.10
34927;DHT22;21132;48.308;14.274;2023-07-09T06:42:06;26.20;46.00
34927;DHT22;21132;48.308;14.274;2023-07-09T06:44:46;26.20;45.70
34927;DHT22;21132;48.308;14.274;2023-07-09T06:47:28;26.30;45.50
34927;DHT22;21132;48.308;14.274;2023-07-09T06:50:18;26.40;45.40
34927;DHT22;21132;48.308;14.274;2023-07-09T06:52:57;26.40;45.20
34927;DHT22;21132;48.308;14.274;2023-07-09T06:55:40;26.50;44.90
34927;DHT22;21132;48.308;14.274;2023-07-09T06:58:16;26.60;44.90
34927;DHT22;21132;48.308;14.274;2023-07-09T07:00:55;26.60;44.70
34927;DHT22;21132;48.308;14.274;2023-07-09T07:03:39;26.70;44.70
34927;DHT22;21132;48.308;14.274;2023-07-09T07:06:16;26.80;44.50
34927;DHT22;21132;48.308;14.274;2023-07-09T07:08:58;26.80;44.10
34927;DHT22;21132;48.308;14.274;2023-07-09T07:11:34;26.90;43.90
34927;DHT22;21132;48.308;14.274;2023-07-09T07:14:10;27.00;43.80
34927;DHT22;21132;48.308;14.274;2023-07-09T07:16:44;27.00;43.70
34927;DHT22;21132;48.308;14.274;2023-07-09T07:19:22;27.10;43.60
34927;DHT22;21132;48.308;14.274;2023-07-09T07:22:02;27.10;43.50
34927;DHT22;21132;48.308;14.274;2023-07-09T07:24:38;27.20;43.30
34927;DHT22;21132;48.308;14.274;2023-07-09T07:27:23;27.30;43.10
34927;DHT22;21132;48.308;14.274;2023-07-09T07:30:02;27.40;43.40
34927;DHT22;21132;48.308;14.274;2023-07-09T07:32:39;27.40;43.30
34927;DHT22;21132;48.308;14.274;2023-07-09T07:35:26;27.50;43.10
34927;DHT22;21132;48.308;14.274;2023-07-09T07:38:08;27.60;42.70
34927;DHT22;21132;48.308;14.274;2023-07-09T07:40:44;27.70;41.30
34927;DHT22;21132;48.308;14.274;2023-07-09T07:43:17;27.70;41.70
34927;DHT22;21132;48.308;14.274;2023-07-09T07:46:00;27.80;41.70
34927;DHT22;21132;48.308;14.274;2023-07-09T07:48:36;27.80;41.90
34927;DHT22;21132;48.308;14.274;2023-07-09T07:51:12;27.90;41.80
34927;DHT22;21132;48.308;14.274;2023-07-09T07:53:47;27.90;41.30
34927;DHT22;21132;48.308;14.274;2023-07-09T07:56:14;28.00;41.50
34927;DHT22;21132;48.308;14.274;2023-07-09T07:58:40;28.10;41.50
34927;DHT22;21132;48.308;14.274;2023-07-09T08:01:11;28.20;41.10
34927;DHT22;21132;48.308;14.274;2023-07-09T08:03:42;28.20;41.00
34927;DHT22;21132;48.308;14.274;2023-07-09T08:06:10;28.30;41.20
34927;DHT22;21132;48.308;14.274;2023-07-09T08:08:37;28.40;41.10
34927;DHT22;21132;48.308;14.274;2023-07-09T08:11:09;28.40;41.00
34927;DHT22;21132;48.308;14.274;2023-07-09T08:13:35;28.50;40.80
34927;DHT22;21132;48.308;14.274;2023-07-09T08:16:02;28.50;40.60
34927;DHT22;21132;48.308;14.274;2023-07-09T08:18:28;28.60;40.40
34927;DHT22;21132;48.308;14.274;2023-07-09T08:20:53;28.60;40.40
34927;DHT22;21132;48.308;14.274;2023-07-09T08:23:19;28.70;40.20
34927;DHT22;21132;48.308;14.274;2023-07-09T08:25:59;28.80;39.90
34927;DHT22;21132;48.308;14.274;2023-07-09T08:28:25;28.80;39.80
34927;DHT22;21132;48.308;14.274;2023-07-09T08:30:53;28.90;40.00
34927;DHT22;21132;48.308;14.274;2023-07-09T08:33:19;28.90;39.60
34927;DHT22;21132;48.308;14.274;2023-07-09T08:35:45;29.00;40.10
34927;DHT22;21132;48.308;14.274;2023-07-09T08:38:18;29.00;39.40
34927;DHT22;21132;48.308;14.274;2023-07-09T08:41:07;29.10;39.20
34927;DHT22;21132;48.308;14.274;2023-07-09T08:46:51;29.20;39.00
34927;DHT22;21132;48.308;14.274;2023-07-09T08:49:47;29.30;39.10
34927;DHT22;21132;48.308;14.274;2023-07-09T08:57:47;29.50;38.80
34927;DHT22;21132;48.308;14.274;2023-07-09T09:03:50;29.60;38.40
34927;DHT22;21132;48.308;14.274;2023-07-09T09:06:30;29.70;38.40
34927;DHT22;21132;48.308;14.274;2023-07-09T09:09:38;29.80;38.20
34927;DHT22;21132;48.308;14.274;2023-07-09T09:12:37;29.80;38.20
34927;DHT22;21132;48.308;14.274;2023-07-09T09:15:35;29.90;38.40
34927;DHT22;21132;48.308;14.274;2023-07-09T09:18:23;30.00;38.00
34927;DHT22;21132;48.308;14.274;2023-07-09T09:26:39;30.20;37.60
34927;DHT22;21132;48.308;14.274;2023-07-09T09:29:14;30.30;37.20
34927;DHT22;21132;48.308;14.274;2023-07-09T09:31:50;30.40;37.30
34927;DHT22;21132;48.308;14.274;2023-07-09T09:34:35;30.40;37.20
34927;DHT22;21132;48.308;14.274;2023-07-09T09:37:09;30.40;36.80
34927;DHT22;21132;48.308;14.274;2023-07-09T09:39:38;30.60;37.90
34927;DHT22;21132;48.308;14.274;2023-07-09T09:42:10;30.60;36.60
34927;DHT22;21132;48.308;14.274;2023-07-09T09:44:44;30.70;37.10
34927;DHT22;21132;48.308;14.274;2023-07-09T09:47:17;30.70;37.60
34927;DHT22;21132;48.308;14.274;2023-07-09T09:49:43;30.80;36.90
34927;DHT22;21132;48.308;14.274;2023-07-09T09:52:14;30.90;36.40
34927;DHT22;21132;48.308;14.274;2023-07-09T09:54:54;30.90;36.20
34927;DHT22;21132;48.308;14.274;2023-07-09T09:57:23;31.00;36.00
34927;DHT22;21132;48.308;14.274;2023-07-09T09:59:57;31.10;36.00
34927;DHT22;21132;48.308;14.274;2023-07-09T10:02:27;31.20;36.10
34927;DHT22;21132;48.308;14.274;2023-07-09T10:04:53;31.20;35.70
34927;DHT22;21132;48.308;14.274;2023-07-09T10:07:34;31.30;35.80
34927;DHT22;21132;48.308;14.274;2023-07-09T10:10:11;31.40;36.10
34927;DHT22;21132;48.308;14.274;2023-07-09T10:12:47;31.50;35.90
34927;DHT22;21132;48.308;14.274;2023-07-09T10:15:28;31.60;36.00
34927;DHT22;21132;48.308;14.274;2023-07-09T10:18:19;31.60;35.60
34927;DHT22;21132;48.308;14.274;2023-07-09T10:21:29;31.70;35.40
34927;DHT22;21132;48.308;14.274;2023-07-09T10:24:24;31.80;35.40
34927;DHT22;21132;48.308;14.274;2023-07-09T10:27:14;31.80;34.20
34927;DHT22;21132;48.308;14.274;2023-07-09T10:33:37;32.00;32.50
34927;DHT22;21132;48.308;14.274;2023-07-09T10:35:51;32.10;30.80
34927;DHT22;21132;48.308;14.274;2023-07-09T10:38:58;32.10;31.40
34927;DHT22;21132;48.308;14.274;2023-07-09T10:41:28;32.20;30.70
34927;DHT22;21132;48.308;14.274;2023-07-09T10:44:11;32.30;29.00
34927;DHT22;21132;48.308;14.274;2023-07-09T10:46:48;32.40;29.40
34927;DHT22;21132;48.308;14.274;2023-07-09T10:49:36;32.50;29.10
34927;DHT22;21132;48.308;14.274;2023-07-09T10:52:25;32.50;28.30
34927;DHT22;21132;48.308;14.274;2023-07-09T11:00:36;32.80;29.10
34927;DHT22;21132;48.308;14.274;2023-07-09T11:03:30;32.80;28.40
34927;DHT22;21132;48.308;14.274;2023-07-09T11:06:19;32.90;28.60
34927;DHT22;21132;48.308;14.274;2023-07-09T11:08:56;33.00;27.60
34927;DHT22;21132;48.308;14.274;2023-07-09T11:11:41;33.10;27.70
34927;DHT22;21132;48.308;14.274;2023-07-09T11:14:36;33.10;26.80
34927;DHT22;21132;48.308;14.274;2023-07-09T11:17:21;33.20;27.20
34927;DHT22;21132;48.308;14.274;2023-07-09T11:19:57;33.30;26.50
34927;DHT22;21132;48.308;14.274;2023-07-09T11:22:39;33.30;26.00
34927;DHT22;21132;48.308;14.274;2023-07-09T11:25:09;33.40;25.50
34927;DHT22;21132;48.308;14.274;2023-07-09T11:27:50;33.50;25.80
34927;DHT22;21132;48.308;14.274;2023-07-09T11:30:25;33.50;26.10
34927;DHT22;21132;48.308;14.274;2023-07-09T11:33:03;33.60;25.60
34927;DHT22;21132;48.308;14.274;2023-07-09T11:35:53;33.60;25.30
34927;DHT22;21132;48.308;14.274;2023-07-09T11:38:45;33.70;25.20
34927;DHT22;21132;48.308;14.274;2023-07-09T11:44:36;33.80;25.30
34927;DHT22;21132;48.308;14.274;2023-07-09T11:47:30;33.90;25.30
34927;DHT22;21132;48.308;14.274;2023-07-09T11:52:55;34.10;23.70
